VJT85 KATL-KGSO
Flight info
| Callsign | VJT85 |
|---|---|
| Flight time | N/A |
| Altitude | 39000 |
| Route | PLMMR3 PLMMR BURGG TRAKS4 |
| Aircraft | CL60/M-SADE3FGHIJ3J4J7P2RWXY/HB1D1 |
Departure
| Time | 2026-05-04 11:24 |
|---|---|
| Airport | Hartsfield Jackson Atlanta International Airport (KATL) |
Arrival
| Time | N/A |
|---|---|
| Airport | Piedmont Triad International Airport (KGSO) |
| Time | Latitude | Longitude | Altitude | Speed | Heading |
|---|---|---|---|---|---|
| 2026-05-04 11:06 | 33.65210 | -84.42468 | 992 ft | 0 kts | 51° |
| 2026-05-04 11:19 | 33.65157 | -84.42261 | 988 ft | 6 kts | 103° |
| 2026-05-04 11:19 | 33.65119 | -84.42219 | 987 ft | 9 kts | 161° |
| 2026-05-04 11:19 | 33.65065 | -84.42160 | 986 ft | 13 kts | 93° |
| 2026-05-04 11:19 | 33.65066 | -84.42029 | 984 ft | 17 kts | 90° |
| 2026-05-04 11:20 | 33.65065 | -84.41877 | 982 ft | 9 kts | 91° |
| 2026-05-04 11:20 | 33.65064 | -84.41778 | 982 ft | 13 kts | 91° |
| 2026-05-04 11:20 | 33.65065 | -84.41649 | 982 ft | 16 kts | 86° |
| 2026-05-04 11:20 | 33.65083 | -84.41543 | 982 ft | 7 kts | 70° |
| 2026-05-04 11:22 | 33.64958 | -84.41003 | 984 ft | 16 kts | 258° |
| 2026-05-04 11:22 | 33.64955 | -84.41065 | 984 ft | 0 kts | 271° |
| 2026-05-04 11:23 | 33.64957 | -84.41356 | 982 ft | 90 kts | 270° |
| 2026-05-04 11:23 | 33.64955 | -84.42464 | 1257 ft | 158 kts | 270° |
| 2026-05-04 11:24 | 33.67415 | -84.52721 | 7248 ft | 267 kts | 294° |
| 2026-05-04 11:25 | 33.68139 | -84.54775 | 8505 ft | 275 kts | 294° |
| 2026-05-04 11:25 | 33.69117 | -84.56762 | 9472 ft | 285 kts | 314° |
| 2026-05-04 11:25 | 33.70675 | -84.58191 | 10301 ft | 284 kts | 336° |
| 2026-05-04 11:26 | 33.74567 | -84.58602 | 12409 ft | 290 kts | 2° |
| 2026-05-04 11:27 | 33.81245 | -84.45029 | 19586 ft | 346 kts | 87° |
| 2026-05-04 11:28 | 33.81267 | -84.42088 | 20202 ft | 361 kts | 87° |
| 2026-05-04 11:28 | 33.81287 | -84.39015 | 20963 ft | 371 kts | 87° |
| 2026-05-04 11:28 | 33.81307 | -84.35946 | 21767 ft | 378 kts | 87° |
| 2026-05-04 11:28 | 33.81504 | -84.32792 | 22588 ft | 379 kts | 76° |
| 2026-05-04 11:29 | 33.82062 | -84.29686 | 23351 ft | 385 kts | 73° |
| 2026-05-04 11:29 | 33.82638 | -84.26557 | 24110 ft | 391 kts | 74° |
| 2026-05-04 11:29 | 33.83224 | -84.23347 | 24889 ft | 396 kts | 74° |
| 2026-05-04 11:29 | 33.83814 | -84.20107 | 25643 ft | 401 kts | 74° |
| 2026-05-04 11:31 | 33.88130 | -83.96182 | 30145 ft | 435 kts | 75° |
| 2026-05-04 11:33 | 33.95755 | -83.72073 | 33582 ft | 449 kts | 52° |
| 2026-05-04 11:33 | 33.97551 | -83.68992 | 33976 ft | 448 kts | 47° |
| 2026-05-04 11:33 | 33.99391 | -83.66010 | 34443 ft | 449 kts | 47° |
| 2026-05-04 11:34 | 34.01247 | -83.62987 | 34954 ft | 447 kts | 47° |
| 2026-05-04 11:34 | 34.03089 | -83.59983 | 35434 ft | 445 kts | 47° |
| 2026-05-04 11:34 | 34.04911 | -83.57011 | 35887 ft | 443 kts | 47° |
| 2026-05-04 11:34 | 34.06746 | -83.54014 | 36330 ft | 442 kts | 47° |
| 2026-05-04 11:35 | 34.08557 | -83.51055 | 36817 ft | 442 kts | 46° |
| 2026-05-04 11:35 | 34.10390 | -83.48058 | 37307 ft | 441 kts | 47° |
| 2026-05-04 11:35 | 34.12229 | -83.45049 | 37772 ft | 441 kts | 46° |
| 2026-05-04 11:35 | 34.14070 | -83.42034 | 38204 ft | 441 kts | 46° |
| 2026-05-04 11:36 | 34.15870 | -83.39083 | 38618 ft | 441 kts | 46° |
| 2026-05-04 11:36 | 34.17720 | -83.36048 | 38967 ft | 441 kts | 46° |
| 2026-05-04 11:36 | 34.19576 | -83.33002 | 39116 ft | 446 kts | 47° |
| 2026-05-04 11:36 | 34.21428 | -83.29964 | 39115 ft | 452 kts | 47° |
| 2026-05-04 11:37 | 34.25163 | -83.23826 | 39105 ft | 465 kts | 47° |
| 2026-05-04 11:37 | 34.29100 | -83.17341 | 39110 ft | 477 kts | 47° |
| 2026-05-04 11:38 | 34.33111 | -83.10717 | 39104 ft | 487 kts | 47° |
| 2026-05-04 11:38 | 34.37161 | -83.04016 | 39104 ft | 494 kts | 48° |
| 2026-05-04 11:39 | 34.41264 | -82.97214 | 39109 ft | 502 kts | 48° |
| 2026-05-04 11:41 | 34.55839 | -82.72930 | 39094 ft | 505 kts | 48° |
| 2026-05-04 11:41 | 34.59952 | -82.66048 | 39095 ft | 505 kts | 48° |
| 2026-05-04 11:42 | 34.64088 | -82.59117 | 39097 ft | 505 kts | 47° |
| 2026-05-04 11:42 | 34.68202 | -82.52209 | 39106 ft | 505 kts | 47° |
| 2026-05-04 11:43 | 34.72334 | -82.45258 | 39101 ft | 506 kts | 47° |
| 2026-05-04 11:43 | 34.76442 | -82.38332 | 39105 ft | 506 kts | 47° |
| 2026-05-04 11:44 | 34.80545 | -82.31404 | 39103 ft | 505 kts | 48° |
| 2026-05-04 11:44 | 34.84656 | -82.24448 | 39102 ft | 505 kts | 48° |
| 2026-05-04 11:45 | 34.88759 | -82.17493 | 39101 ft | 505 kts | 48° |
| 2026-05-04 11:45 | 34.92845 | -82.10551 | 39098 ft | 506 kts | 48° |
| 2026-05-04 11:46 | 34.96906 | -82.03638 | 39098 ft | 506 kts | 48° |
| 2026-05-04 11:46 | 35.01028 | -81.96730 | 39100 ft | 502 kts | 44° |
| 2026-05-04 11:47 | 35.05979 | -81.90787 | 39090 ft | 488 kts | 31° |
| 2026-05-04 11:47 | 35.08774 | -81.88391 | 38665 ft | 481 kts | 25° |
| 2026-05-04 11:47 | 35.11564 | -81.86191 | 38072 ft | 475 kts | 25° |
| 2026-05-04 11:47 | 35.14318 | -81.84016 | 37461 ft | 470 kts | 25° |
| 2026-05-04 11:48 | 35.17079 | -81.81832 | 36800 ft | 464 kts | 25° |
| 2026-05-04 11:48 | 35.19771 | -81.79703 | 36239 ft | 458 kts | 25° |
| 2026-05-04 11:48 | 35.22460 | -81.77574 | 35702 ft | 455 kts | 24° |
| 2026-05-04 11:48 | 35.25105 | -81.75481 | 35098 ft | 454 kts | 24° |
| 2026-05-04 11:49 | 35.27777 | -81.73366 | 34485 ft | 454 kts | 24° |
| 2026-05-04 11:49 | 35.30433 | -81.71263 | 33863 ft | 454 kts | 24° |
| 2026-05-04 11:49 | 35.33098 | -81.69150 | 33274 ft | 457 kts | 25° |
| 2026-05-04 11:49 | 35.35746 | -81.67046 | 32678 ft | 458 kts | 25° |
| 2026-05-04 11:50 | 35.38414 | -81.64925 | 32079 ft | 458 kts | 25° |
| 2026-05-04 11:50 | 35.41095 | -81.62790 | 31470 ft | 455 kts | 25° |
| 2026-05-04 11:50 | 35.43727 | -81.60690 | 30878 ft | 450 kts | 25° |
| 2026-05-04 11:50 | 35.46324 | -81.58617 | 30286 ft | 445 kts | 25° |
| 2026-05-04 11:51 | 35.48896 | -81.56563 | 29700 ft | 440 kts | 25° |
| 2026-05-04 11:51 | 35.51487 | -81.54493 | 29111 ft | 437 kts | 25° |
| 2026-05-04 11:51 | 35.54026 | -81.52464 | 28521 ft | 432 kts | 25° |
| 2026-05-04 11:51 | 35.56563 | -81.50433 | 27945 ft | 428 kts | 25° |
| 2026-05-04 11:52 | 35.59053 | -81.48439 | 27383 ft | 424 kts | 25° |
| 2026-05-04 11:52 | 35.61521 | -81.46463 | 26816 ft | 421 kts | 25° |
| 2026-05-04 11:52 | 35.64019 | -81.44460 | 26233 ft | 416 kts | 25° |
| 2026-05-04 11:52 | 35.66466 | -81.42497 | 25686 ft | 414 kts | 25° |
| 2026-05-04 11:53 | 35.68867 | -81.40569 | 25142 ft | 410 kts | 26° |
| 2026-05-04 11:53 | 35.71270 | -81.38638 | 24578 ft | 406 kts | 26° |
| 2026-05-04 11:53 | 35.73492 | -81.36488 | 24041 ft | 412 kts | 39° |
| 2026-05-04 11:53 | 35.75310 | -81.33709 | 23469 ft | 414 kts | 49° |
| 2026-05-04 11:55 | 35.86914 | -81.14034 | 19713 ft | 396 kts | 49° |
| 2026-05-04 11:55 | 35.88540 | -81.11277 | 19187 ft | 393 kts | 49° |
| 2026-05-04 11:56 | 35.90151 | -81.08541 | 18633 ft | 390 kts | 49° |
| 2026-05-04 11:56 | 35.91736 | -81.05846 | 18123 ft | 387 kts | 49° |
| 2026-05-04 11:56 | 35.93314 | -81.03163 | 17640 ft | 386 kts | 49° |
| 2026-05-04 11:56 | 35.94878 | -81.00504 | 17135 ft | 382 kts | 49° |
| 2026-05-04 11:57 | 35.96424 | -80.97870 | 16609 ft | 379 kts | 49° |
| 2026-05-04 11:57 | 35.97980 | -80.95217 | 16120 ft | 374 kts | 49° |
| 2026-05-04 11:57 | 35.99501 | -80.92626 | 15620 ft | 372 kts | 49° |
| 2026-05-04 11:57 | 36.01030 | -80.90018 | 15002 ft | 371 kts | 49° |
| 2026-05-04 11:58 | 36.02526 | -80.87463 | 14547 ft | 363 kts | 49° |
| 2026-05-04 11:58 | 36.04007 | -80.84933 | 14054 ft | 361 kts | 49° |
| 2026-05-04 11:58 | 36.05481 | -80.82414 | 13581 ft | 358 kts | 49° |
| 2026-05-04 11:58 | 36.06951 | -80.79900 | 13099 ft | 356 kts | 49° |
| 2026-05-04 11:59 | 36.08411 | -80.77401 | 12622 ft | 353 kts | 49° |
| 2026-05-04 11:59 | 36.09842 | -80.74950 | 12156 ft | 347 kts | 49° |
| 2026-05-04 11:59 | 36.11253 | -80.72529 | 11695 ft | 341 kts | 49° |
| 2026-05-04 11:59 | 36.12470 | -80.69997 | 11242 ft | 342 kts | 63° |
| 2026-05-04 12:00 | 36.13047 | -80.67096 | 11018 ft | 350 kts | 83° |
| 2026-05-04 12:00 | 36.12916 | -80.64027 | 10988 ft | 357 kts | 97° |
| 2026-05-04 12:00 | 36.12522 | -80.60941 | 10983 ft | 359 kts | 98° |
| 2026-05-04 12:00 | 36.12141 | -80.57922 | 10988 ft | 360 kts | 98° |
| 2026-05-04 12:01 | 36.11753 | -80.54849 | 10988 ft | 360 kts | 97° |
| 2026-05-04 12:01 | 36.11363 | -80.51765 | 10992 ft | 360 kts | 98° |
| 2026-05-04 12:02 | 36.09150 | -80.33382 | 10993 ft | 359 kts | 89° |
| 2026-05-04 12:03 | 36.09232 | -80.30302 | 10983 ft | 358 kts | 86° |
| 2026-05-04 12:03 | 36.09333 | -80.27206 | 10996 ft | 359 kts | 86° |
| 2026-05-04 12:03 | 36.09429 | -80.24143 | 10985 ft | 359 kts | 86° |
| 2026-05-04 12:03 | 36.09584 | -80.21249 | 10988 ft | 357 kts | 79° |
| 2026-05-04 12:04 | 36.10338 | -80.18359 | 10998 ft | 351 kts | 59° |
| 2026-05-04 12:04 | 36.11760 | -80.15945 | 10989 ft | 344 kts | 43° |
| 2026-05-04 12:04 | 36.13413 | -80.13789 | 10983 ft | 344 kts | 41° |
| 2026-05-04 12:04 | 36.14999 | -80.11716 | 10986 ft | 344 kts | 42° |
| 2026-05-04 12:05 | 36.16703 | -80.09485 | 10996 ft | 344 kts | 42° |
| 2026-05-04 12:05 | 36.18366 | -80.07308 | 10988 ft | 343 kts | 42° |
| 2026-05-04 12:05 | 36.20014 | -80.05150 | 10982 ft | 344 kts | 42° |
| 2026-05-04 12:05 | 36.21490 | -80.02872 | 10988 ft | 330 kts | 51° |
| 2026-05-04 12:06 | 36.22742 | -80.00596 | 10995 ft | 320 kts | 51° |
| 2026-05-04 12:06 | 36.23993 | -79.98310 | 11015 ft | 320 kts | 51° |
| 2026-05-04 12:06 | 36.25238 | -79.96040 | 10985 ft | 317 kts | 51° |
| 2026-05-04 12:06 | 36.26494 | -79.93766 | 10698 ft | 320 kts | 51° |
| 2026-05-04 12:07 | 36.27750 | -79.91515 | 10334 ft | 315 kts | 49° |
| 2026-05-04 12:07 | 36.29129 | -79.89391 | 9923 ft | 309 kts | 45° |
| 2026-05-04 12:07 | 36.30512 | -79.87364 | 9538 ft | 305 kts | 45° |
| 2026-05-04 12:07 | 36.31902 | -79.85342 | 9137 ft | 301 kts | 45° |
| 2026-05-04 12:08 | 36.33258 | -79.83388 | 8748 ft | 297 kts | 45° |
| 2026-05-04 12:08 | 36.34610 | -79.81458 | 8360 ft | 294 kts | 45° |
| 2026-05-04 12:08 | 36.35955 | -79.79552 | 7972 ft | 292 kts | 45° |
| 2026-05-04 12:08 | 36.37294 | -79.77675 | 7575 ft | 291 kts | 45° |
| 2026-05-04 12:09 | 36.38632 | -79.75818 | 7146 ft | 289 kts | 45° |
| 2026-05-04 12:09 | 36.39964 | -79.73976 | 6763 ft | 287 kts | 45° |
| 2026-05-04 12:09 | 36.41306 | -79.72135 | 6360 ft | 285 kts | 45° |
| 2026-05-04 12:09 | 36.42624 | -79.70341 | 5937 ft | 283 kts | 45° |
| 2026-05-04 12:10 | 36.43959 | -79.68527 | 5555 ft | 282 kts | 45° |
| 2026-05-04 12:10 | 36.44406 | -79.67920 | 5423 ft | 282 kts | 45° |